EW3333 Weather Reports


time (UTC)temp
F
wind
direction
speed
knots
gust
knots
rain 1hr
in
rain 24hr
in
rain mn
in
humidity
%
barometer
mb
20210920044502 61 270 0.0 0.0 0.00 0.00 0.00 87 1008.8
20210920043134 62 270 0.0 0.0 0.00 0.00 0.00 87 1008.7
20210920041608 62 270 0.0 0.0 0.00 0.00 0.00 86 1008.7
20210920040122 62 270 0.0 0.0 0.00 0.00 0.00 86 1008.6
20210920034630 62 270 0.0 0.0 0.00 0.00 0.00 86 1008.6
20210920033122 62 270 0.0 0.0 0.00 0.00 0.00 85 1008.4
20210920031654 62 270 0.0 0.0 0.00 0.00 0.00 85 1008.4
20210920030149 63 270 1.7 0.0 0.00 0.00 0.00 84 1008.4
20210920024624 63 271 3.5 0.0 0.00 0.00 0.00 83 1008.4
20210920023157 64 271 4.3 0.0 0.00 0.00 0.00 82 1008.2
20210920021600 64 279 4.3 0.0 0.00 0.00 0.00 80 1008.1
20210920020141 65 276 5.2 0.0 0.00 0.00 0.00 78 1008.0
20210920014700 67 281 5.2 0.0 0.00 0.00 0.00 74 1007.9
20210920013138 70 288 6.1 0.0 0.00 0.00 0.00 69 1007.7
20210920011611 72 287 5.2 0.0 0.00 0.00 0.00 63 1007.5
20210920010156 74 271 4.3 0.0 0.00 0.00 0.00 60 1007.5
20210920004707 75 269 4.3 0.0 0.00 0.00 0.00 58 1007.7
20210920003122 76 288 4.3 0.0 0.00 0.00 0.00 56 1007.6
20210920001626 76 290 4.3 0.0 0.00 0.00 0.00 57 1007.6
20210920000109 76 287 5.2 0.0 0.00 0.00 0.00 56 1007.6
20210919234557 76 277 5.2 0.0 0.00 0.00 0.00 56 1007.8
20210919233115 77 302 4.3 0.0 0.00 0.00 0.00 57 1007.9
20210919231609 76 283 6.1 0.0 0.00 0.00 0.00 57 1008.1
20210919230047 77 251 7.0 0.0 0.00 0.00 0.00 55 1008.2
20210919224631 78 277 5.2 0.0 0.00 0.00 0.00 54 1008.2
20210919223207 78 271 6.1 0.0 0.00 0.00 0.00 55 1008.4
20210919221711 79 292 7.0 0.0 0.00 0.00 0.00 53 1008.4
20210919220043 79 290 7.8 0.0 0.00 0.00 0.00 54 1008.5
20210919214552 79 297 7.0 0.0 0.00 0.00 0.00 53 1008.5
20210919213046 79 303 7.0 0.0 0.00 0.00 0.00 53 1008.7
20210919211606 80 296 6.1 0.0 0.00 0.00 0.00 48 1008.9
20210919210039 81 278 3.5 0.0 0.00 0.00 0.00 48 1009.0
20210919204604 79 292 2.6 0.0 0.00 0.00 0.00 53 1009.2
20210919203057 78 238 2.6 0.0 0.00 0.00 0.00 54 1009.5
20210919201546 78 269 4.3 0.0 0.00 0.00 0.00 54 1009.8
20210919200059 77 288 3.5 0.0 0.00 0.00 0.00 57 1010.1
20210919194616 77 234 2.6 0.0 0.00 0.00 0.00 58 1010.2
20210919193026 76 223 0.9 0.0 0.00 0.00 0.00 59 1010.2
20210919191518 75 232 0.0 0.0 0.00 0.00 0.00 61 1010.4
20210919190013 73 150 0.0 0.0 0.00 0.00 0.00 65 1010.6
20210919184522 72 288 4.3 0.0 0.00 0.00 0.00 66 1010.9
20210919183011 71 322 4.3 0.0 0.00 0.00 0.00 69 1011.1
20210919181523 70 294 4.3 0.0 0.00 0.00 0.00 71 1011.2
20210919180110 69 322 6.1 0.0 0.00 0.00 0.00 73 1011.4
20210919174744 69 300 4.3 0.0 0.00 0.00 0.00 73 1011.4
20210919173149 69 281 4.3 0.0 0.00 0.00 0.00 73 1011.5
20210919171655 68 210 0.0 0.0 0.00 0.00 0.00 74 1011.5
20210919170248 67 205 2.6 0.0 0.00 0.00 0.00 75 1011.4
20210919164625 66 321 0.0 0.0 0.00 0.00 0.00 77 1011.3
20210919163155 65 321 0.0 0.0 0.00 0.00 0.00 82 1011.2
20210919161603 62 310 0.0 0.0 0.00 0.00 0.00 87 1011.4
20210919160227 62 311 0.0 0.0 0.00 0.00 0.00 88 1011.5
20210919154624 61 311 0.0 0.0 0.00 0.00 0.00 89 1011.5
20210919153119 61 311 0.0 0.0 0.00 0.00 0.00 90 1011.5
20210919151614 60 311 0.0 0.0 0.00 0.00 0.00 91 1011.5
20210919150105 60 311 0.0 0.0 0.00 0.00 0.00 91 1011.4
20210919144552 60 311 0.0 0.0 0.00 0.00 0.00 91 1011.3
20210919143059 59 311 0.0 0.0 0.00 0.00 0.00 91 1011.3
20210919141725 59 311 0.0 0.0 0.00 0.00 0.00 91 1011.2
20210919140049 60 311 0.0 0.0 0.00 0.00 0.00 91 1011.2
20210919134552 60 311 0.0 0.0 0.00 0.00 0.00 91 1011.0
20210919133132 60 311 0.0 0.0 0.00 0.00 0.00 92 1010.8
20210919131539 60 311 0.0 0.0 0.00 0.00 0.00 92 1010.9
20210919130042 60 311 0.0 0.0 0.00 0.00 0.00 92 1010.7
20210919124545 60 311 0.0 0.0 0.00 0.00 0.00 92 1010.6
20210919123054 60 311 0.0 0.0 0.00 0.00 0.00 92 1010.5
20210919121535 60 311 0.0 0.0 0.00 0.00 0.00 92 1010.5
20210919120109 60 311 0.0 0.0 0.00 0.00 0.00 92 1010.4
20210919114556 60 311 0.0 0.0 0.00 0.00 0.00 92 1010.3
20210919113028 60 311 0.0 0.0 0.00 0.00 0.00 92 1010.4
20210919111543 60 311 0.0 0.0 0.00 0.00 0.00 92 1010.4
20210919110058 60 311 0.0 0.0 0.00 0.00 0.00 92 1010.4
20210919104538 60 311 0.0 0.0 0.00 0.00 0.00 92 1010.4
20210919103026 60 311 0.0 0.0 0.00 0.00 0.00 92 1010.5
20210919101618 60 311 0.0 0.0 0.00 0.00 0.00 92 1010.6
20210919100022 60 311 0.0 0.0 0.00 0.00 0.00 92 1010.6
20210919094539 60 311 0.0 0.0 0.00 0.00 0.00 92 1010.7
20210919093027 60 311 0.0 0.0 0.00 0.00 0.00 92 1010.8
20210919091526 60 311 0.0 0.0 0.00 0.00 0.00 92 1010.9
20210919090017 60 311 0.0 0.0 0.00 0.00 0.00 92 1010.9
20210919084530 60 311 0.0 0.0 0.00 0.00 0.00 93 1011.1
20210919083022 60 311 0.0 0.0 0.00 0.00 0.00 93 1011.3
20210919081517 60 311 0.0 0.0 0.00 0.00 0.00 93 1011.3
20210919080041 60 311 0.0 0.0 0.00 0.00 0.00 93 1011.4
20210919074532 60 311 0.0 0.0 0.00 0.00 0.00 92 1011.5
20210919073026 60 311 0.0 0.0 0.00 0.00 0.00 92 1011.7
20210919071512 60 311 0.0 0.0 0.00 0.00 0.00 92 1011.7
20210919070005 60 311 0.0 0.0 0.00 0.00 0.00 92 1011.7
20210919064505 60 311 0.0 0.0 0.00 0.00 0.00 92 1011.6
20210919063005 60 311 0.0 0.0 0.00 0.00 0.00 91 1011.7
20210919061536 60 311 0.0 0.0 0.00 0.00 0.00 92 1011.7
20210919060005 61 311 0.0 0.0 0.00 0.00 0.00 91 1011.8
20210919054532 61 311 0.9 0.0 0.00 0.00 0.00 91 1011.8
20210919053008 61 311 1.7 0.0 0.00 0.00 0.00 91 1011.9
20210919051504 61 311 2.6 0.0 0.00 0.00 0.00 91 1011.8
20210919050004 61 309 4.3 0.0 0.00 0.00 0.00 91 1011.8